Terminal Aerodrome Forecast
Issued by NWS Lake Charles, LA

Home | Current Version | Previous Version | Text Only | Print | Product List | Glossary On
Versions: 1 2 3 4 5 6 7 8 9 10 11 12 13 14 15 16
586
FTUS44 KLCH 251120
TAFBPT
TAF
KBPT 251120Z 2512/2612 VRB05KT P6SM VCSH SCT025 BKN035
     FM251400 15007KT P6SM VCTS SCT025 BKN035CB
      TEMPO 2518/2522 2SM TSRA OVC025CB
     FM260200 VRB03KT P6SM BKN250=

USA.gov is the U.S. government's official web portal to all federal, state and local government web resources and services.